sensor_id;sensor_type;location;lat;lon;timestamp;P1;durP1;ratioP1;P2;durP2;ratioP2
71562;SDS011;59391;52.504;13.438;2022-09-30T00:01:47;20.63;;;13.18;;
71562;SDS011;59391;52.504;13.438;2022-09-30T00:04:21;25.20;;;16.00;;
71562;SDS011;59391;52.504;13.438;2022-09-30T00:06:52;19.83;;;13.60;;
71562;SDS011;59391;52.504;13.438;2022-09-30T00:09:18;18.00;;;12.50;;
71562;SDS011;59391;52.504;13.438;2022-09-30T00:11:45;18.48;;;11.75;;
71562;SDS011;59391;52.504;13.438;2022-09-30T00:14:12;17.00;;;11.07;;
71562;SDS011;59391;52.504;13.438;2022-09-30T00:16:42;17.07;;;11.40;;
71562;SDS011;59391;52.504;13.438;2022-09-30T00:19:09;14.45;;;10.40;;
71562;SDS011;59391;52.504;13.438;2022-09-30T00:21:36;18.23;;;12.13;;
71562;SDS011;59391;52.504;13.438;2022-09-30T00:24:02;17.30;;;11.53;;
71562;SDS011;59391;52.504;13.438;2022-09-30T00:26:28;15.38;;;11.30;;
71562;SDS011;59391;52.504;13.438;2022-09-30T00:28:56;15.90;;;11.63;;
71562;SDS011;59391;52.504;13.438;2022-09-30T00:31:24;16.65;;;11.73;;
71562;SDS011;59391;52.504;13.438;2022-09-30T00:33:56;18.10;;;11.23;;
71562;SDS011;59391;52.504;13.438;2022-09-30T00:36:32;15.30;;;10.82;;
71562;SDS011;59391;52.504;13.438;2022-09-30T00:39:01;15.45;;;10.27;;
71562;SDS011;59391;52.504;13.438;2022-09-30T00:41:28;15.30;;;10.20;;
71562;SDS011;59391;52.504;13.438;2022-09-30T00:43:54;15.27;;;10.73;;
71562;SDS011;59391;52.504;13.438;2022-09-30T00:46:27;17.67;;;11.17;;
71562;SDS011;59391;52.504;13.438;2022-09-30T00:49:02;15.23;;;11.20;;
71562;SDS011;59391;52.504;13.438;2022-09-30T00:51:38;13.63;;;10.57;;
71562;SDS011;59391;52.504;13.438;2022-09-30T00:54:12;14.32;;;10.48;;
71562;SDS011;59391;52.504;13.438;2022-09-30T00:56:46;16.02;;;11.13;;
71562;SDS011;59391;52.504;13.438;2022-09-30T00:59:21;16.27;;;11.75;;
71562;SDS011;59391;52.504;13.438;2022-09-30T01:01:53;18.33;;;10.88;;
71562;SDS011;59391;52.504;13.438;2022-09-30T01:04:20;15.85;;;10.88;;
71562;SDS011;59391;52.504;13.438;2022-09-30T01:06:49;16.70;;;11.30;;
71562;SDS011;59391;52.504;13.438;2022-09-30T01:09:17;16.77;;;11.60;;
71562;SDS011;59391;52.504;13.438;2022-09-30T01:11:44;20.50;;;12.05;;
71562;SDS011;59391;52.504;13.438;2022-09-30T01:14:15;15.75;;;11.40;;
71562;SDS011;59391;52.504;13.438;2022-09-30T01:23:10;16.97;;;10.73;;
71562;SDS011;59391;52.504;13.438;2022-09-30T01:26:06;14.73;;;9.70;;
71562;SDS011;59391;52.504;13.438;2022-09-30T01:32:26;14.55;;;9.23;;
71562;SDS011;59391;52.504;13.438;2022-09-30T01:35:07;15.05;;;10.25;;
71562;SDS011;59391;52.504;13.438;2022-09-30T01:40:46;14.40;;;9.27;;
71562;SDS011;59391;52.504;13.438;2022-09-30T01:43:30;14.75;;;9.70;;
71562;SDS011;59391;52.504;13.438;2022-09-30T01:46:28;13.63;;;9.05;;
71562;SDS011;59391;52.504;13.438;2022-09-30T01:49:29;13.23;;;9.77;;
71562;SDS011;59391;52.504;13.438;2022-09-30T01:52:13;13.13;;;8.80;;
71562;SDS011;59391;52.504;13.438;2022-09-30T02:00:43;14.35;;;8.82;;
71562;SDS011;59391;52.504;13.438;2022-09-30T02:03:27;13.65;;;9.77;;
71562;SDS011;59391;52.504;13.438;2022-09-30T02:06:03;13.73;;;9.63;;
71562;SDS011;59391;52.504;13.438;2022-09-30T02:11:24;13.80;;;8.90;;
71562;SDS011;59391;52.504;13.438;2022-09-30T02:13:59;14.13;;;9.25;;
71562;SDS011;59391;52.504;13.438;2022-09-30T02:16:39;14.73;;;8.85;;
71562;SDS011;59391;52.504;13.438;2022-09-30T02:22:21;15.60;;;9.20;;
71562;SDS011;59391;52.504;13.438;2022-09-30T02:24:56;14.52;;;9.27;;
71562;SDS011;59391;52.504;13.438;2022-09-30T02:27:31;14.25;;;9.23;;
71562;SDS011;59391;52.504;13.438;2022-09-30T02:30:06;14.05;;;9.30;;
71562;SDS011;59391;52.504;13.438;2022-09-30T02:32:37;14.53;;;9.40;;
71562;SDS011;59391;52.504;13.438;2022-09-30T02:35:33;13.18;;;9.20;;
71562;SDS011;59391;52.504;13.438;2022-09-30T02:38:02;15.25;;;9.40;;
71562;SDS011;59391;52.504;13.438;2022-09-30T02:41:00;14.93;;;9.35;;
71562;SDS011;59391;52.504;13.438;2022-09-30T02:43:39;17.20;;;10.00;;
71562;SDS011;59391;52.504;13.438;2022-09-30T02:46:10;16.63;;;10.90;;
71562;SDS011;59391;52.504;13.438;2022-09-30T02:51:41;15.63;;;9.48;;
71562;SDS011;59391;52.504;13.438;2022-09-30T02:54:39;15.63;;;9.98;;
71562;SDS011;59391;52.504;13.438;2022-09-30T02:57:40;21.35;;;10.45;;
71562;SDS011;59391;52.504;13.438;2022-09-30T03:00:13;18.07;;;10.53;;
71562;SDS011;59391;52.504;13.438;2022-09-30T03:02:42;16.27;;;9.75;;
71562;SDS011;59391;52.504;13.438;2022-09-30T03:05:08;14.60;;;9.77;;
71562;SDS011;59391;52.504;13.438;2022-09-30T03:07:34;16.67;;;10.07;;
71562;SDS011;59391;52.504;13.438;2022-09-30T03:10:05;15.90;;;10.18;;
71562;SDS011;59391;52.504;13.438;2022-09-30T03:12:55;19.02;;;10.65;;
71562;SDS011;59391;52.504;13.438;2022-09-30T03:19:23;17.05;;;11.05;;
71562;SDS011;59391;52.504;13.438;2022-09-30T03:22:50;19.70;;;11.33;;
71562;SDS011;59391;52.504;13.438;2022-09-30T03:25:52;17.77;;;11.68;;
71562;SDS011;59391;52.504;13.438;2022-09-30T03:28:56;17.02;;;10.98;;
71562;SDS011;59391;52.504;13.438;2022-09-30T03:34:43;17.13;;;10.95;;
71562;SDS011;59391;52.504;13.438;2022-09-30T03:40:40;16.15;;;11.02;;
71562;SDS011;59391;52.504;13.438;2022-09-30T03:46:05;18.77;;;12.23;;
71562;SDS011;59391;52.504;13.438;2022-09-30T03:48:40;18.10;;;11.60;;
71562;SDS011;59391;52.504;13.438;2022-09-30T03:51:09;17.97;;;11.80;;
71562;SDS011;59391;52.504;13.438;2022-09-30T03:53:39;19.98;;;12.15;;
71562;SDS011;59391;52.504;13.438;2022-09-30T03:56:06;17.60;;;11.65;;
71562;SDS011;59391;52.504;13.438;2022-09-30T03:58:31;18.27;;;11.23;;
71562;SDS011;59391;52.504;13.438;2022-09-30T04:00:58;17.83;;;11.93;;
71562;SDS011;59391;52.504;13.438;2022-09-30T04:03:24;17.90;;;11.68;;
71562;SDS011;59391;52.504;13.438;2022-09-30T04:05:51;19.40;;;11.10;;
71562;SDS011;59391;52.504;13.438;2022-09-30T04:08:17;19.65;;;12.55;;
71562;SDS011;59391;52.504;13.438;2022-09-30T04:10:43;18.98;;;11.65;;
71562;SDS011;59391;52.504;13.438;2022-09-30T04:13:09;26.05;;;15.45;;
71562;SDS011;59391;52.504;13.438;2022-09-30T04:15:36;21.37;;;13.23;;
71562;SDS011;59391;52.504;13.438;2022-09-30T04:18:03;20.20;;;12.18;;
71562;SDS011;59391;52.504;13.438;2022-09-30T04:20:30;20.45;;;12.38;;
71562;SDS011;59391;52.504;13.438;2022-09-30T04:22:57;18.63;;;11.27;;
71562;SDS011;59391;52.504;13.438;2022-09-30T04:25:23;15.80;;;10.00;;
71562;SDS011;59391;52.504;13.438;2022-09-30T04:27:50;26.00;;;14.53;;
71562;SDS011;59391;52.504;13.438;2022-09-30T04:30:16;27.67;;;15.15;;
71562;SDS011;59391;52.504;13.438;2022-09-30T04:32:42;26.20;;;12.63;;
71562;SDS011;59391;52.504;13.438;2022-09-30T04:35:09;19.17;;;11.60;;
71562;SDS011;59391;52.504;13.438;2022-09-30T04:37:42;18.87;;;11.20;;
71562;SDS011;59391;52.504;13.438;2022-09-30T04:40:09;18.63;;;10.63;;
71562;SDS011;59391;52.504;13.438;2022-09-30T04:42:37;18.75;;;11.30;;
71562;SDS011;59391;52.504;13.438;2022-09-30T04:45:05;22.02;;;11.65;;
71562;SDS011;59391;52.504;13.438;2022-09-30T04:47:31;24.27;;;11.82;;
71562;SDS011;59391;52.504;13.438;2022-09-30T04:49:58;18.60;;;10.63;;
71562;SDS011;59391;52.504;13.438;2022-09-30T04:52:25;27.45;;;14.27;;
71562;SDS011;59391;52.504;13.438;2022-09-30T04:54:51;21.35;;;12.13;;
71562;SDS011;59391;52.504;13.438;2022-09-30T04:57:18;25.60;;;12.63;;
71562;SDS011;59391;52.504;13.438;2022-09-30T04:59:44;26.45;;;13.50;;
71562;SDS011;59391;52.504;13.438;2022-09-30T05:02:09;22.45;;;12.18;;
71562;SDS011;59391;52.504;13.438;2022-09-30T05:04:36;22.23;;;12.10;;
71562;SDS011;59391;52.504;13.438;2022-09-30T05:07:05;17.48;;;10.90;;
71562;SDS011;59391;52.504;13.438;2022-09-30T05:09:33;17.15;;;10.77;;
71562;SDS011;59391;52.504;13.438;2022-09-30T05:12:00;19.42;;;10.48;;
71562;SDS011;59391;52.504;13.438;2022-09-30T05:14:27;16.95;;;10.82;;
71562;SDS011;59391;52.504;13.438;2022-09-30T05:16:54;17.23;;;10.97;;
71562;SDS011;59391;52.504;13.438;2022-09-30T05:19:20;17.80;;;11.02;;
71562;SDS011;59391;52.504;13.438;2022-09-30T05:21:46;18.42;;;11.70;;
71562;SDS011;59391;52.504;13.438;2022-09-30T05:24:12;19.20;;;10.63;;
71562;SDS011;59391;52.504;13.438;2022-09-30T05:26:38;18.80;;;11.20;;
71562;SDS011;59391;52.504;13.438;2022-09-30T05:29:04;20.80;;;12.32;;
71562;SDS011;59391;52.504;13.438;2022-09-30T05:31:31;18.73;;;11.25;;
71562;SDS011;59391;52.504;13.438;2022-09-30T05:33:57;16.63;;;11.30;;
71562;SDS011;59391;52.504;13.438;2022-09-30T05:36:23;20.53;;;12.60;;
71562;SDS011;59391;52.504;13.438;2022-09-30T05:38:49;19.70;;;12.30;;
71562;SDS011;59391;52.504;13.438;2022-09-30T05:41:16;19.27;;;11.52;;
71562;SDS011;59391;52.504;13.438;2022-09-30T05:43:44;19.48;;;10.32;;
71562;SDS011;59391;52.504;13.438;2022-09-30T05:46:11;16.80;;;10.38;;
71562;SDS011;59391;52.504;13.438;2022-09-30T05:48:38;20.65;;;12.98;;
71562;SDS011;59391;52.504;13.438;2022-09-30T05:51:04;29.13;;;13.60;;
71562;SDS011;59391;52.504;13.438;2022-09-30T05:53:31;19.88;;;11.68;;
71562;SDS011;59391;52.504;13.438;2022-09-30T05:56:05;20.25;;;13.30;;
71562;SDS011;59391;52.504;13.438;2022-09-30T05:58:32;20.50;;;12.93;;
71562;SDS011;59391;52.504;13.438;2022-09-30T06:01:03;21.85;;;11.32;;
71562;SDS011;59391;52.504;13.438;2022-09-30T06:03:32;16.15;;;11.30;;
71562;SDS011;59391;52.504;13.438;2022-09-30T06:05:59;23.25;;;12.13;;
71562;SDS011;59391;52.504;13.438;2022-09-30T06:08:25;19.08;;;11.93;;
71562;SDS011;59391;52.504;13.438;2022-09-30T06:10:51;21.03;;;13.37;;
71562;SDS011;59391;52.504;13.438;2022-09-30T06:13:17;27.15;;;17.42;;
71562;SDS011;59391;52.504;13.438;2022-09-30T06:15:43;23.35;;;13.15;;
71562;SDS011;59391;52.504;13.438;2022-09-30T06:18:20;20.17;;;12.13;;
71562;SDS011;59391;52.504;13.438;2022-09-30T06:20:46;22.15;;;13.38;;
71562;SDS011;59391;52.504;13.438;2022-09-30T06:23:12;18.95;;;12.05;;
71562;SDS011;59391;52.504;13.438;2022-09-30T06:25:38;22.17;;;13.73;;
71562;SDS011;59391;52.504;13.438;2022-09-30T06:28:03;20.38;;;12.52;;
71562;SDS011;59391;52.504;13.438;2022-09-30T06:30:29;21.63;;;12.68;;
71562;SDS011;59391;52.504;13.438;2022-09-30T06:32:55;19.40;;;11.50;;
71562;SDS011;59391;52.504;13.438;2022-09-30T06:35:21;19.35;;;11.23;;
71562;SDS011;59391;52.504;13.438;2022-09-30T06:37:50;22.63;;;12.65;;
71562;SDS011;59391;52.504;13.438;2022-09-30T06:40:16;18.58;;;11.90;;
71562;SDS011;59391;52.504;13.438;2022-09-30T06:42:43;20.25;;;12.40;;
71562;SDS011;59391;52.504;13.438;2022-09-30T06:45:09;19.38;;;13.18;;
71562;SDS011;59391;52.504;13.438;2022-09-30T06:47:35;19.63;;;11.80;;
71562;SDS011;59391;52.504;13.438;2022-09-30T06:50:01;22.13;;;13.90;;
71562;SDS011;59391;52.504;13.438;2022-09-30T06:52:27;20.88;;;12.38;;
71562;SDS011;59391;52.504;13.438;2022-09-30T06:54:52;26.43;;;14.17;;
71562;SDS011;59391;52.504;13.438;2022-09-30T06:57:20;20.13;;;13.32;;
71562;SDS011;59391;52.504;13.438;2022-09-30T06:59:48;24.25;;;14.85;;
71562;SDS011;59391;52.504;13.438;2022-09-30T07:02:16;24.25;;;14.82;;
71562;SDS011;59391;52.504;13.438;2022-09-30T07:04:42;27.67;;;14.43;;
71562;SDS011;59391;52.504;13.438;2022-09-30T07:07:07;35.13;;;19.10;;
71562;SDS011;59391;52.504;13.438;2022-09-30T07:09:33;23.63;;;13.07;;
71562;SDS011;59391;52.504;13.438;2022-09-30T07:11:59;20.90;;;12.93;;
71562;SDS011;59391;52.504;13.438;2022-09-30T07:14:24;23.48;;;12.98;;
71562;SDS011;59391;52.504;13.438;2022-09-30T07:16:50;19.20;;;12.30;;
71562;SDS011;59391;52.504;13.438;2022-09-30T07:19:17;20.48;;;12.98;;
71562;SDS011;59391;52.504;13.438;2022-09-30T07:21:46;21.77;;;13.75;;
71562;SDS011;59391;52.504;13.438;2022-09-30T07:24:15;19.83;;;12.97;;
71562;SDS011;59391;52.504;13.438;2022-09-30T07:26:42;30.60;;;14.30;;
71562;SDS011;59391;52.504;13.438;2022-09-30T07:29:11;24.17;;;14.02;;
71562;SDS011;59391;52.504;13.438;2022-09-30T07:31:38;21.65;;;13.73;;
71562;SDS011;59391;52.504;13.438;2022-09-30T07:34:04;22.35;;;13.43;;
71562;SDS011;59391;52.504;13.438;2022-09-30T07:36:33;30.63;;;16.50;;
71562;SDS011;59391;52.504;13.438;2022-09-30T07:39:03;22.75;;;14.15;;
71562;SDS011;59391;52.504;13.438;2022-09-30T07:41:32;23.83;;;13.65;;
71562;SDS011;59391;52.504;13.438;2022-09-30T07:44:00;25.52;;;14.82;;
71562;SDS011;59391;52.504;13.438;2022-09-30T07:46:30;26.63;;;15.32;;
71562;SDS011;59391;52.504;13.438;2022-09-30T07:48:58;22.67;;;13.02;;
71562;SDS011;59391;52.504;13.438;2022-09-30T07:53:58;23.60;;;13.98;;
71562;SDS011;59391;52.504;13.438;2022-09-30T07:56:29;25.40;;;14.85;;
71562;SDS011;59391;52.504;13.438;2022-09-30T07:58:57;23.05;;;13.68;;
71562;SDS011;59391;52.504;13.438;2022-09-30T08:01:28;19.92;;;12.95;;
71562;SDS011;59391;52.504;13.438;2022-09-30T08:03:56;21.65;;;12.77;;
71562;SDS011;59391;52.504;13.438;2022-09-30T08:06:26;25.63;;;13.05;;
71562;SDS011;59391;52.504;13.438;2022-09-30T08:08:55;19.10;;;13.15;;
71562;SDS011;59391;52.504;13.438;2022-09-30T08:11:22;20.60;;;12.98;;
71562;SDS011;59391;52.504;13.438;2022-09-30T08:13:55;22.67;;;13.18;;
71562;SDS011;59391;52.504;13.438;2022-09-30T08:16:21;16.83;;;11.25;;
71562;SDS011;59391;52.504;13.438;2022-09-30T08:18:54;21.67;;;13.82;;
71562;SDS011;59391;52.504;13.438;2022-09-30T08:21:21;19.48;;;12.75;;
71562;SDS011;59391;52.504;13.438;2022-09-30T08:23:47;19.33;;;13.23;;
71562;SDS011;59391;52.504;13.438;2022-09-30T08:26:14;22.20;;;12.13;;
71562;SDS011;59391;52.504;13.438;2022-09-30T08:28:41;20.60;;;12.82;;
71562;SDS011;59391;52.504;13.438;2022-09-30T08:31:11;20.00;;;13.07;;
71562;SDS011;59391;52.504;13.438;2022-09-30T08:33:46;18.60;;;12.73;;
71562;SDS011;59391;52.504;13.438;2022-09-30T08:36:14;17.75;;;11.88;;
71562;SDS011;59391;52.504;13.438;2022-09-30T08:38:42;18.13;;;11.63;;
71562;SDS011;59391;52.504;13.438;2022-09-30T08:41:11;21.48;;;13.43;;
71562;SDS011;59391;52.504;13.438;2022-09-30T08:47:20;31.90;;;18.30;;
71562;SDS011;59391;52.504;13.438;2022-09-30T08:53:40;19.33;;;12.37;;
71562;SDS011;59391;52.504;13.438;2022-09-30T08:56:23;21.00;;;11.90;;
71562;SDS011;59391;52.504;13.438;2022-09-30T08:59:04;16.75;;;11.63;;
71562;SDS011;59391;52.504;13.438;2022-09-30T09:01:52;17.83;;;10.43;;
71562;SDS011;59391;52.504;13.438;2022-09-30T09:04:38;18.23;;;12.00;;
71562;SDS011;59391;52.504;13.438;2022-09-30T09:07:28;16.17;;;12.03;;
71562;SDS011;59391;52.504;13.438;2022-09-30T09:16:32;14.25;;;9.40;;
71562;SDS011;59391;52.504;13.438;2022-09-30T09:19:08;14.80;;;9.93;;
71562;SDS011;59391;52.504;13.438;2022-09-30T09:21:55;12.57;;;9.13;;
71562;SDS011;59391;52.504;13.438;2022-09-30T09:24:27;12.82;;;9.32;;
71562;SDS011;59391;52.504;13.438;2022-09-30T09:27:02;12.00;;;8.52;;
71562;SDS011;59391;52.504;13.438;2022-09-30T09:32:46;12.15;;;8.27;;
71562;SDS011;59391;52.504;13.438;2022-09-30T09:35:28;9.90;;;7.50;;
71562;SDS011;59391;52.504;13.438;2022-09-30T09:41:51;13.50;;;8.43;;
71562;SDS011;59391;52.504;13.438;2022-09-30T09:47:50;10.23;;;7.80;;
71562;SDS011;59391;52.504;13.438;2022-09-30T09:50:19;10.70;;;7.60;;
71562;SDS011;59391;52.504;13.438;2022-09-30T09:55:44;9.07;;;6.65;;
71562;SDS011;59391;52.504;13.438;2022-09-30T09:58:11;9.55;;;7.60;;
71562;SDS011;59391;52.504;13.438;2022-09-30T10:00:39;11.03;;;7.20;;
71562;SDS011;59391;52.504;13.438;2022-09-30T10:03:19;11.73;;;7.82;;
71562;SDS011;59391;52.504;13.438;2022-09-30T10:08:35;11.93;;;7.35;;
71562;SDS011;59391;52.504;13.438;2022-09-30T10:11:23;10.60;;;7.25;;
71562;SDS011;59391;52.504;13.438;2022-09-30T10:13:58;10.83;;;7.70;;
71562;SDS011;59391;52.504;13.438;2022-09-30T10:16:26;9.98;;;6.95;;
71562;SDS011;59391;52.504;13.438;2022-09-30T10:18:57;9.75;;;6.45;;
71562;SDS011;59391;52.504;13.438;2022-09-30T10:21:25;10.88;;;7.97;;
71562;SDS011;59391;52.504;13.438;2022-09-30T10:23:53;13.40;;;8.02;;
71562;SDS011;59391;52.504;13.438;2022-09-30T10:26:20;10.47;;;7.47;;
71562;SDS011;59391;52.504;13.438;2022-09-30T10:28:59;11.82;;;8.57;;
71562;SDS011;59391;52.504;13.438;2022-09-30T10:31:36;13.52;;;11.02;;
71562;SDS011;59391;52.504;13.438;2022-09-30T10:34:09;12.52;;;7.90;;
71562;SDS011;59391;52.504;13.438;2022-09-30T10:36:58;14.48;;;9.05;;
71562;SDS011;59391;52.504;13.438;2022-09-30T10:39:34;11.67;;;7.90;;
71562;SDS011;59391;52.504;13.438;2022-09-30T10:42:07;9.80;;;6.78;;
71562;SDS011;59391;52.504;13.438;2022-09-30T10:44:43;11.25;;;7.50;;
71562;SDS011;59391;52.504;13.438;2022-09-30T10:47:15;11.77;;;7.70;;
71562;SDS011;59391;52.504;13.438;2022-09-30T10:49:55;12.07;;;7.63;;
71562;SDS011;59391;52.504;13.438;2022-09-30T10:52:54;9.10;;;6.53;;
71562;SDS011;59391;52.504;13.438;2022-09-30T10:58:19;10.48;;;6.40;;
71562;SDS011;59391;52.504;13.438;2022-09-30T11:06:50;10.07;;;6.67;;
71562;SDS011;59391;52.504;13.438;2022-09-30T11:09:38;15.07;;;9.70;;
71562;SDS011;59391;52.504;13.438;2022-09-30T11:12:37;7.30;;;4.47;;
71562;SDS011;59391;52.504;13.438;2022-09-30T11:15:18;6.45;;;4.20;;
71562;SDS011;59391;52.504;13.438;2022-09-30T11:18:04;8.83;;;5.13;;
71562;SDS011;59391;52.504;13.438;2022-09-30T11:20:44;7.83;;;5.07;;
71562;SDS011;59391;52.504;13.438;2022-09-30T11:23:29;9.02;;;6.22;;
71562;SDS011;59391;52.504;13.438;2022-09-30T11:26:08;7.30;;;4.47;;
71562;SDS011;59391;52.504;13.438;2022-09-30T11:29:07;6.20;;;3.80;;
71562;SDS011;59391;52.504;13.438;2022-09-30T11:32:21;6.32;;;3.88;;
71562;SDS011;59391;52.504;13.438;2022-09-30T11:40:47;7.00;;;4.70;;
71562;SDS011;59391;52.504;13.438;2022-09-30T11:43:27;7.65;;;4.25;;
71562;SDS011;59391;52.504;13.438;2022-09-30T11:46:09;7.10;;;4.70;;
71562;SDS011;59391;52.504;13.438;2022-09-30T11:51:42;7.75;;;4.38;;
71562;SDS011;59391;52.504;13.438;2022-09-30T11:54:36;7.70;;;5.10;;
71562;SDS011;59391;52.504;13.438;2022-09-30T12:00:25;5.88;;;3.72;;
71562;SDS011;59391;52.504;13.438;2022-09-30T12:03:03;5.33;;;3.33;;
71562;SDS011;59391;52.504;13.438;2022-09-30T12:05:38;5.57;;;3.22;;
71562;SDS011;59391;52.504;13.438;2022-09-30T12:10:51;5.68;;;4.03;;
71562;SDS011;59391;52.504;13.438;2022-09-30T12:13:23;6.93;;;3.85;;
71562;SDS011;59391;52.504;13.438;2022-09-30T12:15:55;5.50;;;3.30;;
71562;SDS011;59391;52.504;13.438;2022-09-30T12:18:27;5.70;;;3.63;;
71562;SDS011;59391;52.504;13.438;2022-09-30T12:21:02;5.43;;;3.80;;
71562;SDS011;59391;52.504;13.438;2022-09-30T12:23:49;7.47;;;4.07;;
71562;SDS011;59391;52.504;13.438;2022-09-30T12:26:24;6.63;;;4.07;;
71562;SDS011;59391;52.504;13.438;2022-09-30T12:28:53;6.73;;;4.23;;
71562;SDS011;59391;52.504;13.438;2022-09-30T12:32:11;5.75;;;3.58;;
71562;SDS011;59391;52.504;13.438;2022-09-30T12:49:56;8.80;;;5.22;;
71562;SDS011;59391;52.504;13.438;2022-09-30T12:52:25;9.05;;;5.65;;
71562;SDS011;59391;52.504;13.438;2022-09-30T12:54:59;7.07;;;4.72;;
71562;SDS011;59391;52.504;13.438;2022-09-30T12:57:52;9.67;;;5.50;;
71562;SDS011;59391;52.504;13.438;2022-09-30T13:00:21;6.20;;;3.50;;
71562;SDS011;59391;52.504;13.438;2022-09-30T13:02:54;5.15;;;2.90;;
71562;SDS011;59391;52.504;13.438;2022-09-30T13:08:15;5.90;;;4.43;;
71562;SDS011;59391;52.504;13.438;2022-09-30T13:11:20;5.67;;;3.87;;
71562;SDS011;59391;52.504;13.438;2022-09-30T13:14:12;9.77;;;5.68;;
71562;SDS011;59391;52.504;13.438;2022-09-30T13:19:32;9.43;;;5.78;;
71562;SDS011;59391;52.504;13.438;2022-09-30T13:27:46;8.18;;;4.80;;
71562;SDS011;59391;52.504;13.438;2022-09-30T13:32:44;11.30;;;8.57;;
71562;SDS011;59391;52.504;13.438;2022-09-30T13:35:35;11.77;;;9.88;;
71562;SDS011;59391;52.504;13.438;2022-09-30T13:38:15;6.53;;;3.65;;
71562;SDS011;59391;52.504;13.438;2022-09-30T13:40:49;7.95;;;5.45;;
71562;SDS011;59391;52.504;13.438;2022-09-30T13:46:40;8.70;;;7.20;;
71562;SDS011;59391;52.504;13.438;2022-09-30T13:49:31;8.18;;;5.18;;
71562;SDS011;59391;52.504;13.438;2022-09-30T13:52:06;7.85;;;6.00;;
71562;SDS011;59391;52.504;13.438;2022-09-30T13:54:47;5.80;;;3.60;;
71562;SDS011;59391;52.504;13.438;2022-09-30T13:57:17;5.43;;;3.70;;
71562;SDS011;59391;52.504;13.438;2022-09-30T14:00:03;6.55;;;5.00;;
71562;SDS011;59391;52.504;13.438;2022-09-30T14:02:43;7.50;;;4.13;;
71562;SDS011;59391;52.504;13.438;2022-09-30T14:05:42;4.70;;;3.10;;
71562;SDS011;59391;52.504;13.438;2022-09-30T14:08:29;6.43;;;3.72;;
71562;SDS011;59391;52.504;13.438;2022-09-30T14:11:41;6.63;;;3.43;;
71562;SDS011;59391;52.504;13.438;2022-09-30T14:14:56;4.68;;;2.92;;
71562;SDS011;59391;52.504;13.438;2022-09-30T14:24:33;4.75;;;3.00;;
71562;SDS011;59391;52.504;13.438;2022-09-30T14:30:16;5.18;;;2.60;;
71562;SDS011;59391;52.504;13.438;2022-09-30T14:32:55;5.00;;;2.90;;
71562;SDS011;59391;52.504;13.438;2022-09-30T14:35:27;5.35;;;3.15;;
71562;SDS011;59391;52.504;13.438;2022-09-30T14:38:22;4.80;;;2.83;;
71562;SDS011;59391;52.504;13.438;2022-09-30T14:40:54;7.33;;;3.70;;
71562;SDS011;59391;52.504;13.438;2022-09-30T14:43:28;4.95;;;2.88;;
71562;SDS011;59391;52.504;13.438;2022-09-30T14:46:00;5.65;;;2.88;;
71562;SDS011;59391;52.504;13.438;2022-09-30T14:48:42;6.72;;;2.75;;
71562;SDS011;59391;52.504;13.438;2022-09-30T14:51:10;4.63;;;2.40;;
71562;SDS011;59391;52.504;13.438;2022-09-30T14:56:33;3.90;;;2.45;;
71562;SDS011;59391;52.504;13.438;2022-09-30T15:01:51;5.90;;;2.92;;
71562;SDS011;59391;52.504;13.438;2022-09-30T15:04:25;5.40;;;3.22;;
71562;SDS011;59391;52.504;13.438;2022-09-30T15:06:59;5.77;;;3.00;;
71562;SDS011;59391;52.504;13.438;2022-09-30T15:09:29;5.45;;;2.85;;
71562;SDS011;59391;52.504;13.438;2022-09-30T15:12:09;5.25;;;3.13;;
71562;SDS011;59391;52.504;13.438;2022-09-30T15:17:18;4.85;;;2.65;;
71562;SDS011;59391;52.504;13.438;2022-09-30T15:23:04;5.25;;;3.35;;
71562;SDS011;59391;52.504;13.438;2022-09-30T15:25:40;9.18;;;4.50;;
71562;SDS011;59391;52.504;13.438;2022-09-30T15:28:10;6.82;;;3.58;;
71562;SDS011;59391;52.504;13.438;2022-09-30T15:30:36;6.18;;;3.50;;
71562;SDS011;59391;52.504;13.438;2022-09-30T15:33:03;5.80;;;2.97;;
71562;SDS011;59391;52.504;13.438;2022-09-30T15:35:30;5.72;;;3.40;;
71562;SDS011;59391;52.504;13.438;2022-09-30T15:38:08;5.82;;;3.25;;
71562;SDS011;59391;52.504;13.438;2022-09-30T15:40:46;6.00;;;3.60;;
71562;SDS011;59391;52.504;13.438;2022-09-30T15:43:33;5.40;;;3.27;;
71562;SDS011;59391;52.504;13.438;2022-09-30T15:48:51;6.43;;;3.40;;
71562;SDS011;59391;52.504;13.438;2022-09-30T15:51:34;7.60;;;4.30;;
71562;SDS011;59391;52.504;13.438;2022-09-30T15:56:43;11.93;;;6.03;;
71562;SDS011;59391;52.504;13.438;2022-09-30T15:59:10;8.57;;;4.97;;
71562;SDS011;59391;52.504;13.438;2022-09-30T16:12:05;9.32;;;5.53;;
71562;SDS011;59391;52.504;13.438;2022-09-30T16:17:43;10.00;;;6.50;;
71562;SDS011;59391;52.504;13.438;2022-09-30T16:27:54;12.77;;;6.78;;
71562;SDS011;59391;52.504;13.438;2022-09-30T16:30:48;10.82;;;6.82;;
71562;SDS011;59391;52.504;13.438;2022-09-30T16:33:16;16.45;;;10.93;;
71562;SDS011;59391;52.504;13.438;2022-09-30T16:35:46;10.90;;;7.27;;
71562;SDS011;59391;52.504;13.438;2022-09-30T16:38:16;10.00;;;6.15;;
71562;SDS011;59391;52.504;13.438;2022-09-30T16:40:42;9.80;;;6.05;;
71562;SDS011;59391;52.504;13.438;2022-09-30T16:43:22;12.90;;;7.22;;
71562;SDS011;59391;52.504;13.438;2022-09-30T16:45:53;15.10;;;7.72;;
71562;SDS011;59391;52.504;13.438;2022-09-30T16:48:26;13.80;;;6.80;;
71562;SDS011;59391;52.504;13.438;2022-09-30T16:50:53;9.73;;;6.93;;
71562;SDS011;59391;52.504;13.438;2022-09-30T16:53:41;9.95;;;7.28;;
71562;SDS011;59391;52.504;13.438;2022-09-30T16:56:16;9.70;;;6.95;;
71562;SDS011;59391;52.504;13.438;2022-09-30T16:58:50;13.13;;;8.20;;
71562;SDS011;59391;52.504;13.438;2022-09-30T17:01:22;16.17;;;10.00;;
71562;SDS011;59391;52.504;13.438;2022-09-30T17:03:51;15.18;;;8.95;;
71562;SDS011;59391;52.504;13.438;2022-09-30T17:06:20;14.65;;;8.43;;
71562;SDS011;59391;52.504;13.438;2022-09-30T17:08:52;15.65;;;9.70;;
71562;SDS011;59391;52.504;13.438;2022-09-30T17:11:21;22.42;;;13.40;;
71562;SDS011;59391;52.504;13.438;2022-09-30T17:13:57;18.30;;;10.57;;
71562;SDS011;59391;52.504;13.438;2022-09-30T17:16:24;11.70;;;8.00;;
71562;SDS011;59391;52.504;13.438;2022-09-30T17:18:51;13.95;;;8.18;;
71562;SDS011;59391;52.504;13.438;2022-09-30T17:21:18;13.05;;;8.10;;
71562;SDS011;59391;52.504;13.438;2022-09-30T17:23:45;11.55;;;7.97;;
71562;SDS011;59391;52.504;13.438;2022-09-30T17:26:11;19.50;;;9.57;;
71562;SDS011;59391;52.504;13.438;2022-09-30T17:28:37;18.60;;;9.50;;
71562;SDS011;59391;52.504;13.438;2022-09-30T17:31:03;17.53;;;10.33;;
71562;SDS011;59391;52.504;13.438;2022-09-30T17:33:30;19.75;;;11.93;;
71562;SDS011;59391;52.504;13.438;2022-09-30T17:35:59;18.25;;;12.00;;
71562;SDS011;59391;52.504;13.438;2022-09-30T17:38:30;17.70;;;11.00;;
71562;SDS011;59391;52.504;13.438;2022-09-30T17:40:57;21.42;;;12.63;;
71562;SDS011;59391;52.504;13.438;2022-09-30T17:43:42;18.83;;;10.55;;
71562;SDS011;59391;52.504;13.438;2022-09-30T17:46:14;18.30;;;10.77;;
71562;SDS011;59391;52.504;13.438;2022-09-30T17:48:45;21.30;;;10.82;;
71562;SDS011;59391;52.504;13.438;2022-09-30T17:51:12;19.58;;;11.50;;
71562;SDS011;59391;52.504;13.438;2022-09-30T17:53:42;21.85;;;11.60;;